sensor_id;sensor_type;location;lat;lon;timestamp;P1;durP1;ratioP1;P2;durP2;ratioP2
73684;SDS011;61985;51.070;14.064;2023-01-05T00:02:03;1.98;;;0.70;;
73684;SDS011;61985;51.070;14.064;2023-01-05T00:04:28;4.40;;;0.75;;
73684;SDS011;61985;51.070;14.064;2023-01-05T00:06:53;1.92;;;0.57;;
73684;SDS011;61985;51.070;14.064;2023-01-05T00:09:19;1.55;;;0.50;;
73684;SDS011;61985;51.070;14.064;2023-01-05T00:11:44;3.08;;;0.70;;
73684;SDS011;61985;51.070;14.064;2023-01-05T00:14:29;1.48;;;0.50;;
73684;SDS011;61985;51.070;14.064;2023-01-05T00:17:15;1.15;;;0.50;;
73684;SDS011;61985;51.070;14.064;2023-01-05T00:20:01;1.08;;;0.50;;
73684;SDS011;61985;51.070;14.064;2023-01-05T00:22:47;3.90;;;0.50;;
73684;SDS011;61985;51.070;14.064;2023-01-05T00:25:18;2.25;;;0.60;;
73684;SDS011;61985;51.070;14.064;2023-01-05T00:27:45;3.27;;;1.03;;
73684;SDS011;61985;51.070;14.064;2023-01-05T00:30:13;1.85;;;0.60;;
73684;SDS011;61985;51.070;14.064;2023-01-05T00:32:40;1.45;;;0.63;;
73684;SDS011;61985;51.070;14.064;2023-01-05T00:35:06;2.42;;;0.60;;
73684;SDS011;61985;51.070;14.064;2023-01-05T00:37:33;1.30;;;0.57;;
73684;SDS011;61985;51.070;14.064;2023-01-05T00:39:59;3.22;;;0.50;;
73684;SDS011;61985;51.070;14.064;2023-01-05T00:42:24;2.40;;;0.70;;
73684;SDS011;61985;51.070;14.064;2023-01-05T00:44:50;7.30;;;0.65;;
73684;SDS011;61985;51.070;14.064;2023-01-05T00:47:15;4.38;;;0.85;;
73684;SDS011;61985;51.070;14.064;2023-01-05T00:49:41;5.15;;;0.73;;
73684;SDS011;61985;51.070;14.064;2023-01-05T00:52:07;3.00;;;0.77;;
73684;SDS011;61985;51.070;14.064;2023-01-05T00:54:32;4.57;;;0.95;;
73684;SDS011;61985;51.070;14.064;2023-01-05T00:56:58;4.53;;;0.98;;
73684;SDS011;61985;51.070;14.064;2023-01-05T00:59:23;2.60;;;0.82;;
73684;SDS011;61985;51.070;14.064;2023-01-05T01:01:49;3.53;;;0.88;;
73684;SDS011;61985;51.070;14.064;2023-01-05T01:04:15;3.53;;;0.80;;
73684;SDS011;61985;51.070;14.064;2023-01-05T01:06:41;5.05;;;0.93;;
73684;SDS011;61985;51.070;14.064;2023-01-05T01:09:07;4.35;;;0.70;;
73684;SDS011;61985;51.070;14.064;2023-01-05T01:11:33;5.72;;;1.10;;
73684;SDS011;61985;51.070;14.064;2023-01-05T01:13:58;2.58;;;0.68;;
73684;SDS011;61985;51.070;14.064;2023-01-05T01:16:23;4.57;;;0.90;;
73684;SDS011;61985;51.070;14.064;2023-01-05T01:18:49;4.70;;;0.60;;
73684;SDS011;61985;51.070;14.064;2023-01-05T01:21:14;2.17;;;0.85;;
73684;SDS011;61985;51.070;14.064;2023-01-05T01:23:40;3.55;;;0.73;;
73684;SDS011;61985;51.070;14.064;2023-01-05T01:26:06;4.85;;;0.80;;
73684;SDS011;61985;51.070;14.064;2023-01-05T01:28:33;2.47;;;0.80;;
73684;SDS011;61985;51.070;14.064;2023-01-05T01:30:59;4.70;;;0.80;;
73684;SDS011;61985;51.070;14.064;2023-01-05T01:33:25;2.95;;;0.63;;
73684;SDS011;61985;51.070;14.064;2023-01-05T01:35:50;4.25;;;1.08;;
73684;SDS011;61985;51.070;14.064;2023-01-05T01:38:15;3.47;;;0.82;;
73684;SDS011;61985;51.070;14.064;2023-01-05T01:40:42;2.85;;;0.80;;
73684;SDS011;61985;51.070;14.064;2023-01-05T01:43:17;4.18;;;1.00;;
73684;SDS011;61985;51.070;14.064;2023-01-05T01:46:01;3.33;;;0.73;;
73684;SDS011;61985;51.070;14.064;2023-01-05T01:48:26;3.63;;;0.98;;
73684;SDS011;61985;51.070;14.064;2023-01-05T01:50:52;4.70;;;1.10;;
73684;SDS011;61985;51.070;14.064;2023-01-05T01:53:20;4.28;;;1.00;;
73684;SDS011;61985;51.070;14.064;2023-01-05T01:55:49;6.88;;;0.90;;
73684;SDS011;61985;51.070;14.064;2023-01-05T01:58:16;4.82;;;0.93;;
73684;SDS011;61985;51.070;14.064;2023-01-05T02:00:43;4.13;;;0.93;;
73684;SDS011;61985;51.070;14.064;2023-01-05T02:03:09;5.75;;;1.30;;
73684;SDS011;61985;51.070;14.064;2023-01-05T02:05:35;4.07;;;0.80;;
73684;SDS011;61985;51.070;14.064;2023-01-05T02:08:09;7.53;;;1.80;;
73684;SDS011;61985;51.070;14.064;2023-01-05T02:39:18;6.50;;;1.35;;
73684;SDS011;61985;51.070;14.064;2023-01-05T02:41:56;7.43;;;1.75;;
73684;SDS011;61985;51.070;14.064;2023-01-05T02:44:26;8.10;;;1.10;;
73684;SDS011;61985;51.070;14.064;2023-01-05T02:46:59;6.60;;;1.35;;
73684;SDS011;61985;51.070;14.064;2023-01-05T02:49:31;8.13;;;1.08;;
73684;SDS011;61985;51.070;14.064;2023-01-05T02:52:03;6.95;;;1.45;;
73684;SDS011;61985;51.070;14.064;2023-01-05T02:54:33;13.00;;;1.45;;
73684;SDS011;61985;51.070;14.064;2023-01-05T03:00:23;4.75;;;0.77;;
73684;SDS011;61985;51.070;14.064;2023-01-05T03:02:52;7.22;;;1.58;;
73684;SDS011;61985;51.070;14.064;2023-01-05T03:05:24;5.80;;;1.03;;
73684;SDS011;61985;51.070;14.064;2023-01-05T03:07:52;5.63;;;1.25;;
73684;SDS011;61985;51.070;14.064;2023-01-05T03:10:32;8.18;;;1.42;;
73684;SDS011;61985;51.070;14.064;2023-01-05T03:13:19;6.68;;;1.13;;
73684;SDS011;61985;51.070;14.064;2023-01-05T03:16:04;6.22;;;1.13;;
73684;SDS011;61985;51.070;14.064;2023-01-05T03:18:32;8.07;;;1.27;;
73684;SDS011;61985;51.070;14.064;2023-01-05T03:21:20;8.70;;;1.45;;
73684;SDS011;61985;51.070;14.064;2023-01-05T03:23:47;6.45;;;1.20;;
73684;SDS011;61985;51.070;14.064;2023-01-05T03:26:31;7.88;;;1.40;;
73684;SDS011;61985;51.070;14.064;2023-01-05T03:29:15;6.00;;;1.20;;
73684;SDS011;61985;51.070;14.064;2023-01-05T03:32:01;7.72;;;1.55;;
73684;SDS011;61985;51.070;14.064;2023-01-05T03:34:54;6.28;;;1.20;;
73684;SDS011;61985;51.070;14.064;2023-01-05T03:37:50;7.88;;;1.00;;
73684;SDS011;61985;51.070;14.064;2023-01-05T03:40:31;11.13;;;2.00;;
73684;SDS011;61985;51.070;14.064;2023-01-05T03:42:59;8.70;;;1.58;;
73684;SDS011;61985;51.070;14.064;2023-01-05T03:45:25;4.25;;;0.80;;
73684;SDS011;61985;51.070;14.064;2023-01-05T03:47:56;7.65;;;1.50;;
73684;SDS011;61985;51.070;14.064;2023-01-05T03:50:22;9.65;;;1.55;;
73684;SDS011;61985;51.070;14.064;2023-01-05T03:52:47;6.80;;;1.60;;
73684;SDS011;61985;51.070;14.064;2023-01-05T03:55:12;9.35;;;1.33;;
73684;SDS011;61985;51.070;14.064;2023-01-05T03:57:38;7.70;;;1.50;;
73684;SDS011;61985;51.070;14.064;2023-01-05T04:00:04;8.45;;;1.90;;
73684;SDS011;61985;51.070;14.064;2023-01-05T04:02:30;8.68;;;1.50;;
73684;SDS011;61985;51.070;14.064;2023-01-05T04:04:55;7.95;;;1.50;;
73684;SDS011;61985;51.070;14.064;2023-01-05T04:07:20;12.35;;;1.90;;
73684;SDS011;61985;51.070;14.064;2023-01-05T04:09:46;4.75;;;1.30;;
73684;SDS011;61985;51.070;14.064;2023-01-05T04:12:11;11.45;;;1.92;;
73684;SDS011;61985;51.070;14.064;2023-01-05T04:14:36;10.00;;;1.50;;
73684;SDS011;61985;51.070;14.064;2023-01-05T04:17:02;10.98;;;1.75;;
73684;SDS011;61985;51.070;14.064;2023-01-05T04:19:27;10.02;;;1.60;;
73684;SDS011;61985;51.070;14.064;2023-01-05T04:21:52;7.63;;;1.40;;
73684;SDS011;61985;51.070;14.064;2023-01-05T04:24:18;8.05;;;1.98;;
73684;SDS011;61985;51.070;14.064;2023-01-05T04:26:43;7.18;;;1.40;;
73684;SDS011;61985;51.070;14.064;2023-01-05T04:29:10;7.90;;;1.65;;
73684;SDS011;61985;51.070;14.064;2023-01-05T04:31:35;7.68;;;1.45;;
73684;SDS011;61985;51.070;14.064;2023-01-05T04:34:00;10.05;;;1.38;;
73684;SDS011;61985;51.070;14.064;2023-01-05T04:36:26;8.93;;;1.58;;
73684;SDS011;61985;51.070;14.064;2023-01-05T04:38:51;7.03;;;1.48;;
73684;SDS011;61985;51.070;14.064;2023-01-05T04:41:16;8.18;;;1.42;;
73684;SDS011;61985;51.070;14.064;2023-01-05T04:43:42;7.68;;;1.40;;
73684;SDS011;61985;51.070;14.064;2023-01-05T04:46:07;9.85;;;1.58;;
73684;SDS011;61985;51.070;14.064;2023-01-05T04:48:32;11.93;;;1.67;;
73684;SDS011;61985;51.070;14.064;2023-01-05T04:50:58;6.85;;;1.40;;
73684;SDS011;61985;51.070;14.064;2023-01-05T04:53:23;7.78;;;1.48;;
73684;SDS011;61985;51.070;14.064;2023-01-05T04:55:49;9.18;;;1.85;;
73684;SDS011;61985;51.070;14.064;2023-01-05T04:58:15;6.53;;;1.55;;
73684;SDS011;61985;51.070;14.064;2023-01-05T05:00:41;7.25;;;2.45;;
73684;SDS011;61985;51.070;14.064;2023-01-05T05:03:06;13.82;;;1.63;;
73684;SDS011;61985;51.070;14.064;2023-01-05T05:05:31;14.98;;;2.03;;
73684;SDS011;61985;51.070;14.064;2023-01-05T05:07:57;9.10;;;1.77;;
73684;SDS011;61985;51.070;14.064;2023-01-05T05:10:22;9.45;;;1.60;;
73684;SDS011;61985;51.070;14.064;2023-01-05T05:12:48;12.18;;;1.80;;
73684;SDS011;61985;51.070;14.064;2023-01-05T05:15:13;8.27;;;1.63;;
73684;SDS011;61985;51.070;14.064;2023-01-05T05:17:38;5.95;;;1.52;;
73684;SDS011;61985;51.070;14.064;2023-01-05T05:20:04;9.35;;;1.80;;
73684;SDS011;61985;51.070;14.064;2023-01-05T05:22:30;9.32;;;1.48;;
73684;SDS011;61985;51.070;14.064;2023-01-05T05:24:55;10.50;;;2.33;;
73684;SDS011;61985;51.070;14.064;2023-01-05T05:27:20;10.98;;;2.17;;
73684;SDS011;61985;51.070;14.064;2023-01-05T05:29:46;8.90;;;1.50;;
73684;SDS011;61985;51.070;14.064;2023-01-05T05:32:11;7.65;;;1.48;;
73684;SDS011;61985;51.070;14.064;2023-01-05T05:34:36;6.38;;;1.60;;
73684;SDS011;61985;51.070;14.064;2023-01-05T05:37:02;11.18;;;2.13;;
73684;SDS011;61985;51.070;14.064;2023-01-05T05:39:27;11.02;;;1.80;;
73684;SDS011;61985;51.070;14.064;2023-01-05T05:41:52;9.00;;;1.73;;
73684;SDS011;61985;51.070;14.064;2023-01-05T05:44:19;9.98;;;1.52;;
73684;SDS011;61985;51.070;14.064;2023-01-05T05:46:44;7.55;;;1.83;;
73684;SDS011;61985;51.070;14.064;2023-01-05T05:49:09;8.20;;;1.58;;
73684;SDS011;61985;51.070;14.064;2023-01-05T05:51:34;8.63;;;1.80;;
73684;SDS011;61985;51.070;14.064;2023-01-05T05:54:00;9.13;;;1.50;;
73684;SDS011;61985;51.070;14.064;2023-01-05T05:56:25;7.28;;;1.67;;
73684;SDS011;61985;51.070;14.064;2023-01-05T05:58:50;7.00;;;1.48;;
73684;SDS011;61985;51.070;14.064;2023-01-05T06:01:16;9.63;;;1.70;;
73684;SDS011;61985;51.070;14.064;2023-01-05T06:03:41;8.95;;;2.05;;
73684;SDS011;61985;51.070;14.064;2023-01-05T06:06:07;6.60;;;1.63;;
73684;SDS011;61985;51.070;14.064;2023-01-05T06:08:32;7.22;;;1.77;;
73684;SDS011;61985;51.070;14.064;2023-01-05T06:10:58;8.70;;;1.75;;
73684;SDS011;61985;51.070;14.064;2023-01-05T06:13:23;8.15;;;1.67;;
73684;SDS011;61985;51.070;14.064;2023-01-05T06:15:49;11.95;;;1.95;;
73684;SDS011;61985;51.070;14.064;2023-01-05T06:18:15;8.80;;;2.33;;
73684;SDS011;61985;51.070;14.064;2023-01-05T06:20:40;9.35;;;1.80;;
73684;SDS011;61985;51.070;14.064;2023-01-05T06:23:06;11.55;;;2.10;;
73684;SDS011;61985;51.070;14.064;2023-01-05T06:25:31;7.78;;;1.55;;
73684;SDS011;61985;51.070;14.064;2023-01-05T06:27:57;6.57;;;1.40;;
73684;SDS011;61985;51.070;14.064;2023-01-05T06:30:22;9.23;;;1.88;;
73684;SDS011;61985;51.070;14.064;2023-01-05T06:32:48;7.72;;;1.80;;
73684;SDS011;61985;51.070;14.064;2023-01-05T06:35:13;8.50;;;1.55;;
73684;SDS011;61985;51.070;14.064;2023-01-05T06:37:38;11.38;;;2.00;;
73684;SDS011;61985;51.070;14.064;2023-01-05T06:40:04;4.30;;;1.50;;
73684;SDS011;61985;51.070;14.064;2023-01-05T06:42:30;7.75;;;2.05;;
73684;SDS011;61985;51.070;14.064;2023-01-05T06:44:57;10.02;;;1.77;;
73684;SDS011;61985;51.070;14.064;2023-01-05T06:47:22;4.40;;;1.48;;
73684;SDS011;61985;51.070;14.064;2023-01-05T06:49:48;12.93;;;1.98;;
73684;SDS011;61985;51.070;14.064;2023-01-05T06:52:13;10.75;;;2.00;;
73684;SDS011;61985;51.070;14.064;2023-01-05T06:54:38;6.22;;;1.75;;
73684;SDS011;61985;51.070;14.064;2023-01-05T06:57:04;8.40;;;2.13;;
73684;SDS011;61985;51.070;14.064;2023-01-05T06:59:30;8.05;;;1.75;;
73684;SDS011;61985;51.070;14.064;2023-01-05T07:01:56;10.00;;;2.60;;
73684;SDS011;61985;51.070;14.064;2023-01-05T07:04:21;13.68;;;2.42;;
73684;SDS011;61985;51.070;14.064;2023-01-05T07:06:47;8.88;;;1.77;;
73684;SDS011;61985;51.070;14.064;2023-01-05T07:09:12;12.45;;;2.90;;
73684;SDS011;61985;51.070;14.064;2023-01-05T07:11:37;11.73;;;2.58;;
73684;SDS011;61985;51.070;14.064;2023-01-05T07:14:02;10.50;;;2.10;;
73684;SDS011;61985;51.070;14.064;2023-01-05T07:16:28;9.50;;;2.08;;
73684;SDS011;61985;51.070;14.064;2023-01-05T07:18:53;10.00;;;1.70;;
73684;SDS011;61985;51.070;14.064;2023-01-05T07:21:18;8.25;;;1.88;;
73684;SDS011;61985;51.070;14.064;2023-01-05T07:23:44;7.78;;;2.10;;
73684;SDS011;61985;51.070;14.064;2023-01-05T07:26:09;5.15;;;1.67;;
73684;SDS011;61985;51.070;14.064;2023-01-05T07:28:35;8.82;;;2.03;;
73684;SDS011;61985;51.070;14.064;2023-01-05T07:31:02;8.70;;;1.77;;
73684;SDS011;61985;51.070;14.064;2023-01-05T07:33:30;9.55;;;2.03;;
73684;SDS011;61985;51.070;14.064;2023-01-05T11:23:39;4.18;;;1.40;;
73684;SDS011;61985;51.070;14.064;2023-01-05T11:26:23;5.70;;;1.60;;
73684;SDS011;61985;51.070;14.064;2023-01-05T11:31:27;4.15;;;1.77;;
73684;SDS011;61985;51.070;14.064;2023-01-05T11:33:59;7.32;;;1.30;;
73684;SDS011;61985;51.070;14.064;2023-01-05T11:37:05;10.23;;;4.28;;
73684;SDS011;61985;51.070;14.064;2023-01-05T11:44:40;7.47;;;3.05;;
73684;SDS011;61985;51.070;14.064;2023-01-05T11:52:33;8.15;;;1.70;;
73684;SDS011;61985;51.070;14.064;2023-01-05T11:57:44;8.90;;;1.70;;
73684;SDS011;61985;51.070;14.064;2023-01-05T12:06:18;6.88;;;1.75;;
73684;SDS011;61985;51.070;14.064;2023-01-05T12:08:53;6.88;;;2.03;;
73684;SDS011;61985;51.070;14.064;2023-01-05T12:11:26;5.95;;;1.73;;
73684;SDS011;61985;51.070;14.064;2023-01-05T12:19:48;7.55;;;1.80;;
73684;SDS011;61985;51.070;14.064;2023-01-05T12:25:34;8.02;;;1.70;;
73684;SDS011;61985;51.070;14.064;2023-01-05T12:36:48;6.18;;;1.42;;
73684;SDS011;61985;51.070;14.064;2023-01-05T12:39:47;5.50;;;1.55;;
73684;SDS011;61985;51.070;14.064;2023-01-05T12:50:22;3.92;;;1.35;;
73684;SDS011;61985;51.070;14.064;2023-01-05T12:52:54;8.55;;;1.75;;
73684;SDS011;61985;51.070;14.064;2023-01-05T12:55:34;2.58;;;1.30;;
73684;SDS011;61985;51.070;14.064;2023-01-05T12:58:07;4.15;;;1.27;;
73684;SDS011;61985;51.070;14.064;2023-01-05T13:00:37;3.25;;;1.27;;
73684;SDS011;61985;51.070;14.064;2023-01-05T13:03:13;7.13;;;2.15;;
73684;SDS011;61985;51.070;14.064;2023-01-05T13:05:55;4.70;;;1.63;;
73684;SDS011;61985;51.070;14.064;2023-01-05T13:08:28;4.72;;;1.50;;
73684;SDS011;61985;51.070;14.064;2023-01-05T13:13:40;5.60;;;1.60;;
73684;SDS011;61985;51.070;14.064;2023-01-05T13:19:08;5.85;;;1.77;;
73684;SDS011;61985;51.070;14.064;2023-01-05T13:21:39;4.47;;;1.43;;
73684;SDS011;61985;51.070;14.064;2023-01-05T13:24:08;3.25;;;1.10;;
73684;SDS011;61985;51.070;14.064;2023-01-05T13:26:37;6.43;;;1.27;;
73684;SDS011;61985;51.070;14.064;2023-01-05T13:29:02;9.80;;;3.75;;
73684;SDS011;61985;51.070;14.064;2023-01-05T13:31:47;10.13;;;3.60;;
73684;SDS011;61985;51.070;14.064;2023-01-05T13:34:52;9.10;;;3.38;;
73684;SDS011;61985;51.070;14.064;2023-01-05T13:45:59;7.60;;;1.67;;
73684;SDS011;61985;51.070;14.064;2023-01-05T13:53:17;3.20;;;1.05;;
73684;SDS011;61985;51.070;14.064;2023-01-05T13:55:48;3.25;;;1.05;;
73684;SDS011;61985;51.070;14.064;2023-01-05T13:58:39;1.77;;;0.80;;
73684;SDS011;61985;51.070;14.064;2023-01-05T14:01:09;4.53;;;0.75;;
73684;SDS011;61985;51.070;14.064;2023-01-05T14:03:39;0.95;;;0.80;;
73684;SDS011;61985;51.070;14.064;2023-01-05T14:06:14;2.38;;;0.90;;
73684;SDS011;61985;51.070;14.064;2023-01-05T14:08:47;0.70;;;0.70;;
73684;SDS011;61985;51.070;14.064;2023-01-05T14:11:34;2.10;;;0.77;;
73684;SDS011;61985;51.070;14.064;2023-01-05T14:16:52;2.60;;;0.82;;
73684;SDS011;61985;51.070;14.064;2023-01-05T14:32:09;8.20;;;4.18;;
73684;SDS011;61985;51.070;14.064;2023-01-05T14:34:36;3.35;;;1.35;;
73684;SDS011;61985;51.070;14.064;2023-01-05T14:37:17;3.63;;;1.40;;
73684;SDS011;61985;51.070;14.064;2023-01-05T14:39:46;3.45;;;1.35;;
73684;SDS011;61985;51.070;14.064;2023-01-05T14:49:58;8.52;;;2.63;;
73684;SDS011;61985;51.070;14.064;2023-01-05T16:08:11;2.08;;;0.85;;
73684;SDS011;61985;51.070;14.064;2023-01-05T16:10:59;0.90;;;0.90;;
73684;SDS011;61985;51.070;14.064;2023-01-05T16:13:31;1.45;;;0.90;;
73684;SDS011;61985;51.070;14.064;2023-01-05T16:16:02;1.50;;;0.80;;
73684;SDS011;61985;51.070;14.064;2023-01-05T16:18:35;1.75;;;1.10;;
73684;SDS011;61985;51.070;14.064;2023-01-05T16:21:12;2.03;;;1.00;;
73684;SDS011;61985;51.070;14.064;2023-01-05T16:23:55;1.27;;;0.85;;
73684;SDS011;61985;51.070;14.064;2023-01-05T16:26:25;2.70;;;0.93;;
73684;SDS011;61985;51.070;14.064;2023-01-05T16:28:50;4.68;;;1.08;;
73684;SDS011;61985;51.070;14.064;2023-01-05T16:31:27;4.00;;;1.13;;
73684;SDS011;61985;51.070;14.064;2023-01-05T16:34:04;1.83;;;0.95;;
73684;SDS011;61985;51.070;14.064;2023-01-05T16:36:58;1.33;;;0.95;;
73684;SDS011;61985;51.070;14.064;2023-01-05T16:39:39;3.47;;;1.00;;
73684;SDS011;61985;51.070;14.064;2023-01-05T16:44:54;3.45;;;1.00;;
73684;SDS011;61985;51.070;14.064;2023-01-05T16:47:31;4.03;;;1.38;;
73684;SDS011;61985;51.070;14.064;2023-01-05T16:49:59;5.15;;;1.27;;
73684;SDS011;61985;51.070;14.064;2023-01-05T16:52:25;3.47;;;1.40;;
73684;SDS011;61985;51.070;14.064;2023-01-05T16:55:22;5.28;;;2.83;;
73684;SDS011;61985;51.070;14.064;2023-01-05T16:57:52;5.13;;;2.40;;
73684;SDS011;61985;51.070;14.064;2023-01-05T17:02:49;12.68;;;6.15;;
73684;SDS011;61985;51.070;14.064;2023-01-05T17:05:27;7.15;;;3.88;;
73684;SDS011;61985;51.070;14.064;2023-01-05T17:10:34;12.52;;;4.75;;
73684;SDS011;61985;51.070;14.064;2023-01-05T17:13:05;3.42;;;2.05;;
73684;SDS011;61985;51.070;14.064;2023-01-05T17:15:45;3.08;;;1.63;;
73684;SDS011;61985;51.070;14.064;2023-01-05T17:36:17;4.95;;;1.60;;
73684;SDS011;61985;51.070;14.064;2023-01-05T17:38:44;4.43;;;1.88;;
73684;SDS011;61985;51.070;14.064;2023-01-05T17:41:11;2.85;;;1.20;;
73684;SDS011;61985;51.070;14.064;2023-01-05T17:43:37;3.05;;;1.55;;
73684;SDS011;61985;51.070;14.064;2023-01-05T17:46:02;3.47;;;1.48;;
73684;SDS011;61985;51.070;14.064;2023-01-05T17:48:28;3.28;;;1.10;;
73684;SDS011;61985;51.070;14.064;2023-01-05T17:50:53;3.10;;;1.20;;
73684;SDS011;61985;51.070;14.064;2023-01-05T17:53:19;3.15;;;1.30;;
73684;SDS011;61985;51.070;14.064;2023-01-05T17:55:44;1.83;;;1.35;;
73684;SDS011;61985;51.070;14.064;2023-01-05T17:58:11;2.22;;;1.02;;
73684;SDS011;61985;51.070;14.064;2023-01-05T18:00:38;3.70;;;1.20;;
73684;SDS011;61985;51.070;14.064;2023-01-05T18:03:09;2.92;;;1.10;;
73684;SDS011;61985;51.070;14.064;2023-01-05T18:05:36;1.45;;;1.00;;
73684;SDS011;61985;51.070;14.064;2023-01-05T18:08:01;3.20;;;1.40;;
73684;SDS011;61985;51.070;14.064;2023-01-05T18:10:27;1.90;;;1.20;;
73684;SDS011;61985;51.070;14.064;2023-01-05T18:12:53;4.60;;;1.30;;
73684;SDS011;61985;51.070;14.064;2023-01-05T18:15:18;6.90;;;1.77;;
73684;SDS011;61985;51.070;14.064;2023-01-05T18:17:44;3.08;;;1.50;;
73684;SDS011;61985;51.070;14.064;2023-01-05T18:20:09;4.47;;;1.20;;
73684;SDS011;61985;51.070;14.064;2023-01-05T18:22:37;1.95;;;1.17;;
73684;SDS011;61985;51.070;14.064;2023-01-05T18:25:03;2.90;;;1.23;;
73684;SDS011;61985;51.070;14.064;2023-01-05T18:27:29;4.28;;;1.20;;
73684;SDS011;61985;51.070;14.064;2023-01-05T18:29:59;3.03;;;1.02;;
73684;SDS011;61985;51.070;14.064;2023-01-05T18:32:24;4.40;;;1.20;;
73684;SDS011;61985;51.070;14.064;2023-01-05T18:34:49;2.30;;;1.10;;
73684;SDS011;61985;51.070;14.064;2023-01-05T18:37:15;1.90;;;0.82;;
73684;SDS011;61985;51.070;14.064;2023-01-05T18:39:40;1.80;;;0.93;;
73684;SDS011;61985;51.070;14.064;2023-01-05T18:42:07;4.32;;;1.10;;
73684;SDS011;61985;51.070;14.064;2023-01-05T18:44:32;2.88;;;1.20;;
73684;SDS011;61985;51.070;14.064;2023-01-05T18:46:57;2.33;;;1.02;;
73684;SDS011;61985;51.070;14.064;2023-01-05T18:49:23;2.03;;;1.08;;
73684;SDS011;61985;51.070;14.064;2023-01-05T18:51:49;5.53;;;1.10;;
73684;SDS011;61985;51.070;14.064;2023-01-05T18:54:16;2.88;;;1.00;;
73684;SDS011;61985;51.070;14.064;2023-01-05T18:56:41;1.50;;;0.90;;
73684;SDS011;61985;51.070;14.064;2023-01-05T18:59:07;3.38;;;1.17;;
73684;SDS011;61985;51.070;14.064;2023-01-05T19:01:35;5.72;;;1.42;;
73684;SDS011;61985;51.070;14.064;2023-01-05T19:04:06;2.55;;;1.05;;
73684;SDS011;61985;51.070;14.064;2023-01-05T19:06:35;5.47;;;1.60;;
73684;SDS011;61985;51.070;14.064;2023-01-05T19:09:02;3.42;;;1.40;;
73684;SDS011;61985;51.070;14.064;2023-01-05T19:11:28;3.50;;;1.27;;
73684;SDS011;61985;51.070;14.064;2023-01-05T19:13:55;3.40;;;0.80;;
73684;SDS011;61985;51.070;14.064;2023-01-05T19:16:24;4.47;;;0.98;;
73684;SDS011;61985;51.070;14.064;2023-01-05T19:18:54;4.47;;;1.05;;
73684;SDS011;61985;51.070;14.064;2023-01-05T19:21:21;3.50;;;1.10;;
73684;SDS011;61985;51.070;14.064;2023-01-05T19:23:47;4.38;;;1.02;;
73684;SDS011;61985;51.070;14.064;2023-01-05T19:26:18;2.53;;;1.00;;
73684;SDS011;61985;51.070;14.064;2023-01-05T19:28:43;2.53;;;1.10;;
73684;SDS011;61985;51.070;14.064;2023-01-05T19:31:10;2.38;;;1.05;;
73684;SDS011;61985;51.070;14.064;2023-01-05T19:33:37;4.13;;;1.10;;
73684;SDS011;61985;51.070;14.064;2023-01-05T19:36:05;2.03;;;0.90;;
73684;SDS011;61985;51.070;14.064;2023-01-05T19:38:32;5.63;;;3.08;;
73684;SDS011;61985;51.070;14.064;2023-01-05T19:41:02;2.97;;;1.20;;
73684;SDS011;61985;51.070;14.064;2023-01-05T19:43:42;3.45;;;1.50;;
73684;SDS011;61985;51.070;14.064;2023-01-05T19:46:12;2.92;;;1.13;;
73684;SDS011;61985;51.070;14.064;2023-01-05T19:48:44;2.00;;;1.13;;
73684;SDS011;61985;51.070;14.064;2023-01-05T19:51:11;3.80;;;1.40;;
73684;SDS011;61985;51.070;14.064;2023-01-05T19:53:39;2.28;;;1.02;;
73684;SDS011;61985;51.070;14.064;2023-01-05T19:56:06;1.60;;;0.90;;
73684;SDS011;61985;51.070;14.064;2023-01-05T19:58:36;1.98;;;1.10;;
73684;SDS011;61985;51.070;14.064;2023-01-05T20:03:32;3.58;;;1.35;;
73684;SDS011;61985;51.070;14.064;2023-01-05T20:06:11;2.65;;;1.08;;
73684;SDS011;61985;51.070;14.064;2023-01-05T20:08:39;1.48;;;0.80;;
73684;SDS011;61985;51.070;14.064;2023-01-05T20:11:09;2.70;;;1.23;;
73684;SDS011;61985;51.070;14.064;2023-01-05T20:13:36;2.10;;;0.95;;
73684;SDS011;61985;51.070;14.064;2023-01-05T20:16:02;6.32;;;1.50;;
73684;SDS011;61985;51.070;14.064;2023-01-05T20:18:32;3.08;;;1.10;;
73684;SDS011;61985;51.070;14.064;2023-01-05T20:20:59;2.90;;;1.20;;
73684;SDS011;61985;51.070;14.064;2023-01-05T20:23:36;6.10;;;1.50;;
73684;SDS011;61985;51.070;14.064;2023-01-05T20:26:12;2.47;;;1.20;;
73684;SDS011;61985;51.070;14.064;2023-01-05T20:28:40;3.13;;;1.30;;
73684;SDS011;61985;51.070;14.064;2023-01-05T20:31:12;2.10;;;1.17;;
73684;SDS011;61985;51.070;14.064;2023-01-05T20:33:40;2.53;;;1.00;;
73684;SDS011;61985;51.070;14.064;2023-01-05T20:36:05;3.05;;;1.27;;
73684;SDS011;61985;51.070;14.064;2023-01-05T20:38:31;3.83;;;1.10;;
73684;SDS011;61985;51.070;14.064;2023-01-05T20:40:56;5.53;;;1.20;;
73684;SDS011;61985;51.070;14.064;2023-01-05T20:43:22;2.60;;;1.25;;
73684;SDS011;61985;51.070;14.064;2023-01-05T20:45:48;3.00;;;1.25;;
73684;SDS011;61985;51.070;14.064;2023-01-05T20:48:14;3.97;;;1.30;;
73684;SDS011;61985;51.070;14.064;2023-01-05T20:50:39;2.10;;;1.10;;
73684;SDS011;61985;51.070;14.064;2023-01-05T20:53:08;2.70;;;1.10;;
73684;SDS011;61985;51.070;14.064;2023-01-05T20:55:37;2.03;;;1.10;;
73684;SDS011;61985;51.070;14.064;2023-01-05T20:58:04;3.72;;;1.20;;
73684;SDS011;61985;51.070;14.064;2023-01-05T21:00:29;3.58;;;1.50;;
73684;SDS011;61985;51.070;14.064;2023-01-05T21:02:55;4.80;;;1.58;;
73684;SDS011;61985;51.070;14.064;2023-01-05T21:05:20;3.42;;;1.50;;
73684;SDS011;61985;51.070;14.064;2023-01-05T21:07:45;3.47;;;1.35;;
73684;SDS011;61985;51.070;14.064;2023-01-05T21:10:11;2.75;;;1.20;;
73684;SDS011;61985;51.070;14.064;2023-01-05T21:12:36;4.28;;;1.20;;
73684;SDS011;61985;51.070;14.064;2023-01-05T21:15:02;2.67;;;1.17;;
73684;SDS011;61985;51.070;14.064;2023-01-05T21:17:27;4.18;;;1.25;;
73684;SDS011;61985;51.070;14.064;2023-01-05T21:19:53;2.78;;;1.55;;
73684;SDS011;61985;51.070;14.064;2023-01-05T21:22:18;1.40;;;1.08;;
73684;SDS011;61985;51.070;14.064;2023-01-05T21:24:43;2.42;;;1.10;;
73684;SDS011;61985;51.070;14.064;2023-01-05T21:27:09;3.38;;;1.40;;
73684;SDS011;61985;51.070;14.064;2023-01-05T21:29:34;6.00;;;1.60;;
73684;SDS011;61985;51.070;14.064;2023-01-05T21:32:00;3.38;;;1.30;;
73684;SDS011;61985;51.070;14.064;2023-01-05T21:34:25;2.67;;;1.20;;
73684;SDS011;61985;51.070;14.064;2023-01-05T21:36:50;3.00;;;1.30;;
73684;SDS011;61985;51.070;14.064;2023-01-05T21:39:17;2.88;;;1.30;;
73684;SDS011;61985;51.070;14.064;2023-01-05T21:41:45;3.65;;;1.20;;
73684;SDS011;61985;51.070;14.064;2023-01-05T21:44:31;4.88;;;1.50;;
73684;SDS011;61985;51.070;14.064;2023-01-05T21:46:56;2.97;;;1.20;;
73684;SDS011;61985;51.070;14.064;2023-01-05T21:49:22;1.95;;;1.30;;
73684;SDS011;61985;51.070;14.064;2023-01-05T21:51:47;3.13;;;1.13;;
73684;SDS011;61985;51.070;14.064;2023-01-05T21:54:31;3.75;;;1.10;;
73684;SDS011;61985;51.070;14.064;2023-01-05T21:57:15;5.05;;;1.65;;
73684;SDS011;61985;51.070;14.064;2023-01-05T21:59:41;2.72;;;1.20;;
73684;SDS011;61985;51.070;14.064;2023-01-05T22:02:07;3.63;;;1.15;;
73684;SDS011;61985;51.070;14.064;2023-01-05T22:04:33;1.42;;;1.08;;
73684;SDS011;61985;51.070;14.064;2023-01-05T22:06:59;2.53;;;1.15;;
73684;SDS011;61985;51.070;14.064;2023-01-05T22:09:25;6.18;;;1.17;;
73684;SDS011;61985;51.070;14.064;2023-01-05T22:11:50;5.43;;;1.30;;
73684;SDS011;61985;51.070;14.064;2023-01-05T22:14:16;6.40;;;1.73;;
73684;SDS011;61985;51.070;14.064;2023-01-05T22:16:41;3.80;;;1.42;;
73684;SDS011;61985;51.070;14.064;2023-01-05T22:19:07;4.10;;;1.58;;